• Join FlightAware (Why Join?)
  • Login
  • US Flag 
07:36PM EDT


 

Airport Tracker/Info


-or-


 

Live Flight TrackerFlight Track Log ✈ SKW6345 ✈ 01-May-2013 ✈ KGFK - KDEN

Flight Track Log - Related Links

Times and Time Zones

All times are in EDT time to prevent confusion due to time zone crossing. See the SKW6345 flight status page for this flight to view local times or setup timezone preferences in your user account.

Time Position Orientation Groundspeed Altitude Reporting Facility
EDT Latitude Longitude Course Direction KTS MPH feet Rate Location/Type
07:04AM 47.9661 -97.1822 224° Southwest 140 161 1,800  Level Minneapolis Center
07:05AM 47.9558 -97.2403 255° West 213 245 4,300 2,040 Climbing Minneapolis Center
07:05AM 47.9469 -97.2550 228° Southwest 246 283 4,700 3,000 Climbing Minneapolis Center
07:06AM 47.8958 -97.3236 222° Southwest 248 285 8,200 2,820 Climbing Minneapolis Center
07:07AM 47.6835 -97.5499 225° Southwest  Level FlightAware Approximate
07:07AM 47.8500 -97.3989 228° Southwest 246 283 10,400  Level Minneapolis Center
07:08AM 47.6195 -97.6437 224° Southwest  Level FlightAware Approximate
07:08AM 47.7853 -97.4889 223° Southwest 255 293 13,300  Level Minneapolis Center
07:09AM 47.5547 -97.7363 224° Southwest  Level FlightAware Approximate
07:09AM 47.7294 -97.5692 224° Southwest 266 306 15,400  Level Minneapolis Center
07:10AM 47.6731 -97.6506 224° Southwest 275 316 17,600 1,860 Climbing Minneapolis Center
07:11AM 47.6128 -97.7342 223° Southwest 285 328 19,200 1,680 Climbing Minneapolis Center
07:12AM 47.5517 -97.8222 224° Southwest 295 339 21,000 1,980 Climbing Minneapolis Center
07:13AM 47.4919 -97.9050 223° Southwest 290 334 23,300 1,620 Climbing Minneapolis Center
07:14AM 47.4458 -97.9722 225° Southwest 280 322 24,300 960 Climbing Minneapolis Center
07:15AM 47.3881 -98.0531 223° Southwest 285 328 25,300 960 Climbing Minneapolis Center
07:16AM 47.3203 -98.1189 213° Southwest 290 334 26,300 960 Climbing Minneapolis Center
07:17AM 47.2508 -98.1808 211° Southwest 292 336 27,300 960 Climbing Minneapolis Center
07:18AM 47.1817 -98.2425 211° Southwest 292 336 28,300 960 Climbing Minneapolis Center
07:19AM 47.0978 -98.3156 211° Southwest 292 336 29,300 840 Climbing Minneapolis Center
07:20AM 47.0269 -98.3781 211° Southwest 296 341 30,100 840 Climbing Minneapolis Center
07:21AM 46.9567 -98.4389 211° Southwest 295 339 31,000 720 Climbing Minneapolis Center
07:22AM 46.8861 -98.5006 211° Southwest 295 339 31,600 660 Climbing Minneapolis Center
07:23AM 46.8153 -98.5608 210° Southwest 295 339 32,400 600 Climbing Minneapolis Center
07:24AM 46.7450 -98.6211 210° Southwest 294 338 32,900 540 Climbing Minneapolis Center
07:25AM 46.6731 -98.6842 211° Southwest 299 344 33,500 540 Climbing Minneapolis Center
07:26AM 46.6019 -98.7453 211° Southwest 299 344 34,000 240 Climbing Minneapolis Center
07:27AM 46.5275 -98.8094 211° Southwest 308 354 34,000 240 Level Minneapolis Center
07:28AM 46.4514 -98.8739 210° Southwest 314 361 34,600 540 Climbing Minneapolis Center
07:29AM 46.3772 -98.9375 211° Southwest 312 359 35,100 480 Climbing Minneapolis Center
07:30AM 46.3025 -99.0017 211° Southwest 312 359 35,600 420 Climbing Minneapolis Center
07:31AM 46.2283 -99.0642 210° Southwest 310 357 36,000 180 Climbing Minneapolis Center
07:32AM 46.1531 -99.1278 210° Southwest 313 360 36,000  Level Minneapolis Center
07:33AM 46.0608 -99.2056 210° Southwest 320 368 36,000  Level Minneapolis Center
07:34AM 45.9822 -99.2708 210° Southwest 324 373 36,000  Level Minneapolis Center
07:35AM 45.9036 -99.3372 210° Southwest 327 376 36,000  Level Minneapolis Center
07:36AM 45.8242 -99.4014 209° Southwest 327 376 36,000  Level Minneapolis Center
07:38AM 45.7450 -99.4675 210° Southwest 328 377 36,000  Level Minneapolis Center
07:39AM 45.6650 -99.5336 210° Southwest 330 380 36,000  Level Minneapolis Center
07:40AM 45.5850 -99.5992 210° Southwest 331 381 36,000  Level Minneapolis Center
07:41AM 45.5036 -99.6656 210° Southwest 333 383 36,000  Level Minneapolis Center
07:42AM 45.4225 -99.7317 210° Southwest 335 386 36,000  Level Minneapolis Center
07:43AM 45.3417 -99.7972 210° Southwest 335 386 36,000  Level Minneapolis Center
07:44AM 45.2600 -99.8639 210° Southwest 337 388 36,000  Level Minneapolis Center
07:45AM 45.1797 -99.9303 210° Southwest 338 389 36,000  Level Minneapolis Center
07:46AM 45.0983 -99.9964 210° Southwest 338 389 36,000  Level Minneapolis Center
07:47AM 45.0089 -100.0669 209° Southwest 331 381 36,000  Level Minneapolis Center
07:48AM 44.9286 -100.1319 210° Southwest 332 382 36,000  Level Minneapolis Center
07:49AM 44.8497 -100.1950 210° Southwest 330 380 36,000  Level Minneapolis Center
07:50AM 44.7714 -100.2575 210° Southwest 327 376 36,000  Level Minneapolis Center
07:51AM 44.6925 -100.3203 210° Southwest 326 375 36,000  Level Minneapolis Center
07:52AM 44.6147 -100.3806 209° Southwest 322 371 36,000  Level Minneapolis Center
07:53AM 44.5369 -100.4411 209° Southwest 320 368 36,000  Level Minneapolis Center
07:54AM 44.4592 -100.5022 209° Southwest 321 369 36,000  Level Minneapolis Center
07:55AM 44.3814 -100.5647 210° Southwest 322 371 36,000  Level Minneapolis Center
07:56AM 44.3028 -100.6258 209° Southwest 323 372 36,000  Level Minneapolis Center
07:57AM 44.2233 -100.6872 209° Southwest 326 375 36,000  Level Minneapolis Center
07:58AM 44.1433 -100.7481 209° Southwest 326 375 36,000  Level Minneapolis Center
07:59AM 44.0481 -100.8242 210° Southwest 328 377 36,000  Level Minneapolis Center
08:00AM 43.9672 -100.8875 209° Southwest 331 381 36,000  Level Minneapolis Center
08:01AM 43.8864 -100.9483 208° Southwest 332 382 36,000  Level Minneapolis Center
08:02AM 43.8061 -101.0103 209° Southwest 331 381 36,000  Level Minneapolis Center
08:03AM 43.7242 -101.0733 209° Southwest 334 384 36,000  Level Minneapolis Center
08:04AM 43.6408 -101.1342 208° Southwest 337 388 36,000  Level Minneapolis Center
08:05AM 43.5592 -101.1981 210° Southwest 339 390 36,000  Level Denver Center
08:06AM 43.4767 -101.2586 208° Southwest 338 389 36,000  Level Denver Center
08:07AM 43.3939 -101.3222 209° Southwest 339 390 36,000  Level Denver Center
08:08AM 43.3106 -101.3856 209° Southwest 342 394 36,000  Level Denver Center
08:09AM 43.2261 -101.4478 208° Southwest 342 394 36,000  Level Denver Center
08:10AM 43.1414 -101.5122 209° Southwest 345 397 36,000  Level Denver Center
08:11AM 43.0486 -101.5806 208° Southwest 346 398 36,000  Level Denver Center
08:12AM 42.9672 -101.6406 208° Southwest 348 400 36,000  Level Denver Center
08:13AM 42.8731 -101.7114 209° Southwest 346 398 36,000  Level Denver Center
08:14AM 42.7917 -101.7714 208° Southwest 346 398 36,000  Level Denver Center
08:15AM 42.7119 -101.8294 208° Southwest 347 399 36,000  Level Denver Center
08:16AM 42.6019 -101.9097 208° Southwest 351 404 36,000  Level Denver Center
08:17AM 42.5206 -101.9694 208° Southwest 348 400 36,000  Level Denver Center
08:18AM 42.4264 -102.0383 208° Southwest 345 397 36,000  Level Denver Center
08:19AM 42.3436 -102.0989 208° Southwest 350 403 36,000  Level Denver Center
08:20AM 42.2606 -102.1581 208° Southwest 349 402 36,000  Level Denver Center
08:21AM 42.1650 -102.2269 208° Southwest 350 403 36,000  Level Denver Center
08:22AM 42.0822 -102.2864 208° Southwest 352 405 36,000  Level Denver Center
08:24AM 41.9997 -102.3464 208° Southwest 351 404 36,000  Level Denver Center
08:25AM 41.8903 -102.4247 208° Southwest 351 404 36,000  Level Denver Center
08:26AM 41.8072 -102.4825 207° Southwest 351 404 36,000  Level Denver Center
08:27AM 41.7264 -102.5414 209° Southwest 349 402 36,000  Level Denver Center
08:28AM 41.6275 -102.6100 207° Southwest 353 406 36,000  Level Denver Center
08:29AM 41.5433 -102.6689 208° Southwest 355 409 36,000  Level Denver Center
08:30AM 41.4606 -102.7275 208° Southwest 353 406 36,000  Level Denver Center
08:31AM 41.3636 -102.7958 208° Southwest 351 404 36,000  Level Denver Center
08:32AM 41.2792 -102.8553 208° Southwest 356 410 36,000  Level Denver Center
08:33AM 41.1958 -102.9114 207° Southwest 358 412 36,000 -60 Level Denver Center
08:34AM 41.0972 -102.9850 209° Southwest 356 410 35,900 -600 Descending Denver Center
08:35AM 41.0286 -103.0792 226° Southwest 372 428 34,900 -960 Descending Denver Center
08:36AM 40.9608 -103.1722 226° Southwest 368 423 34,000 -960 Descending Denver Center
08:37AM 40.8914 -103.2683 226° Southwest 360 414 33,000 -1,080 Descending Denver Center
08:38AM 40.8219 -103.3633 226° Southwest 357 411 31,900 -1,080 Descending Denver Center
08:39AM 40.7528 -103.4597 227° Southwest 358 412 30,900 -1,320 Descending Denver Center
08:40AM 40.6814 -103.5578 226° Southwest 369 425 29,300 -1,740 Descending Denver Center
08:41AM 40.6103 -103.6567 227° Southwest 368 423 27,400 -1,920 Descending Denver Center
08:42AM 40.5428 -103.7500 226° Southwest 353 406 25,500 -1,920 Descending Denver Center
08:43AM 40.4756 -103.8411 226° Southwest 345 397 23,600 -1,740 Descending Denver Center
08:44AM 40.4053 -103.9378 226° Southwest 326 375 22,000 -1,320 Descending Denver Center
08:45AM 40.3500 -104.0111 225° Southwest 286 329 21,000 -1,140 Descending Denver Center
08:46AM 40.2908 -104.0761 220° Southwest 278 320 19,700 -1,380 Descending Denver Center
08:47AM 40.2217 -104.1497 219° Southwest 297 342 18,200 -1,380 Descending Denver Center
08:48AM 40.1592 -104.2194 220° Southwest 299 344 17,000 -1,260 Descending Denver Center
08:49AM 40.0969 -104.2864 219° Southwest 293 337 15,700 -1,140 Descending Denver Center
08:50AM 40.0350 -104.3542 220° Southwest 291 335 14,700 -1,020 Descending Denver Center
08:50AM 40.0000 -104.4000 225° Southwest 292 336 14,100 -1,080 Descending Denver TRACON
08:52AM 39.9333 -104.4667 217° Southwest 297 342 12,900 -1,200 Descending Denver TRACON
08:53AM 39.8500 -104.5000 197° South 281 323 11,600 -1,320 Descending Denver TRACON
08:53AM 39.8258 -104.5000 180° South 277 319 11,100 -720 Descending Denver Center
08:54AM 39.7550 -104.5019 181° South 256 295 10,600 -840 Descending Denver Center
08:55AM 39.6861 -104.5033 181° South 250 288 9,500 -1,140 Descending Denver Center
08:56AM 39.6206 -104.5053 181° South 232 267 8,400 -780 Descending Denver Center
08:57AM 39.5533 -104.5050 180° South 223 257 8,000 -240 Descending Denver Center
08:58AM 39.5175 -104.5558 228° Southwest 242 278 8,000  Level Denver Center
08:59AM 39.5294 -104.6419 280° West 197 227 8,000  Level Denver Center
09:00AM 39.5836 -104.6464 356° North 195 224 8,000  Level Denver Center
09:01AM 39.6386 -104.6433 North 197 227 8,000  Level Denver Center
09:02AM 39.6900 -104.6436 360° North 187 215 8,000  Level Denver Center